Terminal Aerodrome Forecast
Issued by NWS Wichita, KS

Home | Current Version | Previous Version | Graphics & Text | Print | Product List | Glossary On
Versions: 1 2 3 4 5 6 7 8 9 10 11 12 13 14 15 16 17 18 19 20 21
000
FTUS43 KICT 190334 AAB
TAFICT
TAF AMD
KICT 190334Z 1904/1924 13012G18KT P6SM VCTS BKN080CB OVC250CB
      TEMPO 1904/1908 VRB30G40KT 3SM TSRA SCT015 OVC040CB
     FM191100 10010KT P6SM BKN090
     FM191500 15013KT P6SM SCT100
     FM191800 19015G22KT P6SM SCT050=

USA.gov is the U.S. government's official web portal to all federal, state and local government web resources and services.